createdAt,value
2017-08-05T00:01:08.585Z,68.80
2017-08-05T00:03:36.323Z,69.90
2017-08-05T00:06:04.066Z,69.00
2017-08-05T00:08:31.783Z,68.80
2017-08-05T00:10:59.511Z,68.60
2017-08-05T00:13:27.971Z,69.20
2017-08-05T00:15:55.695Z,69.40
2017-08-05T00:18:23.409Z,69.40
2017-08-05T00:20:51.130Z,69.70
2017-08-05T00:23:18.866Z,69.60
2017-08-05T00:25:46.564Z,69.80
2017-08-05T00:28:14.314Z,70.20
2017-08-05T00:30:42.039Z,69.70
2017-08-05T00:33:09.763Z,69.40
2017-08-05T00:35:37.491Z,69.60
2017-08-05T00:38:05.258Z,69.40
2017-08-05T00:40:32.977Z,69.50
2017-08-05T00:43:00.699Z,69.80
2017-08-05T00:45:29.353Z,69.80
2017-08-05T00:47:57.079Z,69.70
2017-08-05T00:50:24.799Z,70.20
2017-08-05T00:52:52.515Z,69.80
2017-08-05T00:55:20.246Z,70.70
2017-08-05T00:57:47.964Z,70.20
2017-08-05T01:00:15.711Z,70.10
2017-08-05T01:02:43.439Z,70.30
2017-08-05T01:05:11.179Z,70.50
2017-08-05T01:07:39.679Z,70.40
2017-08-05T01:10:07.394Z,70.20
2017-08-05T01:12:35.379Z,70.20
2017-08-05T01:15:03.135Z,70.30
2017-08-05T01:17:31.876Z,70.40
2017-08-05T01:19:59.607Z,71.00
2017-08-05T01:22:28.102Z,71.70
2017-08-05T01:24:55.838Z,71.60
2017-08-05T01:27:23.546Z,71.50
2017-08-05T01:29:51.283Z,71.20
2017-08-05T01:32:19.025Z,71.00
2017-08-05T01:34:46.791Z,71.20
2017-08-05T01:37:15.291Z,71.40
2017-08-05T01:39:43.035Z,71.30
2017-08-05T01:42:10.779Z,71.50
2017-08-05T01:44:38.520Z,71.60
2017-08-05T01:47:06.319Z,71.90
2017-08-05T01:49:34.707Z,72.20
2017-08-05T01:52:02.472Z,72.60
2017-08-05T01:54:30.215Z,72.50
2017-08-05T01:56:57.998Z,72.60
2017-08-05T01:59:25.764Z,72.00
2017-08-05T02:01:53.515Z,71.80
2017-08-05T02:04:21.271Z,72.10
2017-08-05T02:06:49.001Z,72.40
2017-08-05T02:09:16.752Z,72.40
2017-08-05T02:11:44.490Z,72.90
2017-08-05T02:14:12.265Z,72.70
2017-08-05T02:16:40.013Z,72.80
2017-08-05T02:19:07.735Z,73.00
2017-08-05T02:21:36.459Z,73.10
2017-08-05T02:24:04.187Z,73.20
2017-08-05T02:26:31.915Z,73.20
2017-08-05T02:28:59.656Z,73.30
2017-08-05T02:31:27.381Z,73.20
2017-08-05T02:33:55.108Z,73.50
2017-08-05T02:36:22.822Z,73.40
2017-08-05T02:38:50.551Z,73.60
2017-08-05T02:41:18.295Z,73.50
2017-08-05T02:43:46.006Z,73.60
2017-08-05T02:46:13.751Z,73.60
2017-08-05T02:48:41.484Z,73.40
2017-08-05T02:51:09.234Z,73.60
2017-08-05T02:53:37.567Z,73.70
2017-08-05T02:56:05.326Z,73.60
2017-08-05T02:58:33.238Z,73.50
2017-08-05T03:01:00.962Z,73.50
2017-08-05T03:03:28.695Z,73.80
2017-08-05T03:05:56.419Z,73.60
2017-08-05T03:08:24.131Z,74.00
2017-08-05T03:10:51.864Z,73.90
2017-08-05T03:13:19.615Z,73.60
2017-08-05T03:15:47.341Z,73.20
2017-08-05T03:18:15.064Z,73.30
2017-08-05T03:20:42.790Z,73.50
2017-08-05T03:23:10.530Z,73.50
2017-08-05T03:25:38.278Z,73.70
2017-08-05T03:28:06.008Z,73.90
2017-08-05T03:30:33.803Z,74.30
2017-08-05T03:33:01.538Z,74.00
2017-08-05T03:35:29.950Z,74.30
2017-08-05T03:37:57.696Z,74.40
2017-08-05T03:40:25.422Z,74.80
2017-08-05T03:42:53.144Z,74.80
2017-08-05T03:45:20.883Z,75.00
2017-08-05T03:47:48.626Z,75.00
2017-08-05T03:50:16.362Z,75.30
2017-08-05T03:52:45.007Z,75.40
2017-08-05T03:55:12.739Z,75.30
2017-08-05T03:57:40.495Z,75.30
2017-08-05T04:00:09.030Z,75.30
2017-08-05T04:02:36.751Z,75.30
2017-08-05T04:05:05.242Z,75.30
2017-08-05T04:07:32.964Z,75.30
2017-08-05T04:10:00.697Z,75.30
2017-08-05T04:12:28.431Z,75.40
2017-08-05T04:14:56.171Z,75.50
2017-08-05T04:17:24.673Z,75.60
2017-08-05T04:19:52.389Z,75.50
2017-08-05T04:22:20.129Z,75.50
2017-08-05T04:24:47.870Z,75.50
2017-08-05T04:27:15.595Z,75.50
2017-08-05T04:29:44.083Z,75.50
2017-08-05T04:32:13.175Z,75.30
2017-08-05T04:34:40.912Z,75.30
2017-08-05T04:37:08.639Z,75.80
2017-08-05T04:39:36.383Z,75.70
2017-08-05T04:42:04.111Z,75.70
2017-08-05T04:44:31.843Z,74.70
2017-08-05T04:46:59.589Z,75.10
2017-08-05T04:49:27.312Z,75.00
2017-08-05T04:51:55.039Z,74.80
2017-08-05T04:54:22.783Z,75.10
2017-08-05T04:56:50.503Z,75.30
2017-08-05T04:59:18.222Z,75.30
2017-08-05T05:01:46.968Z,74.80
2017-08-05T05:04:14.698Z,75.10
2017-08-05T05:06:42.430Z,75.10
2017-08-05T05:09:10.275Z,75.30
2017-08-05T05:11:38.005Z,75.00
2017-08-05T05:14:05.746Z,74.90
2017-08-05T05:16:33.476Z,75.00
2017-08-05T05:19:01.214Z,74.80
2017-08-05T05:21:29.703Z,74.70
2017-08-05T05:23:57.448Z,74.70
2017-08-05T05:26:25.175Z,74.70
2017-08-05T05:28:52.900Z,74.60
2017-08-05T05:31:20.642Z,74.60
2017-08-05T05:33:49.075Z,74.40
2017-08-05T05:36:16.815Z,73.90
2017-08-05T05:38:44.546Z,74.10
2017-08-05T05:41:13.044Z,73.60
2017-08-05T05:43:40.767Z,73.80
2017-08-05T05:46:08.506Z,73.40
2017-08-05T05:48:36.234Z,73.30
2017-08-05T05:51:03.983Z,73.40
2017-08-05T05:53:31.716Z,73.00
2017-08-05T05:55:59.444Z,72.80
2017-08-05T05:58:27.179Z,72.20
2017-08-05T06:00:55.676Z,72.00
2017-08-05T06:03:23.396Z,72.00
2017-08-05T06:05:51.538Z,72.40
2017-08-05T06:08:19.275Z,72.30
2017-08-05T06:10:46.991Z,71.80
2017-08-05T06:13:14.726Z,70.70
2017-08-05T06:15:42.469Z,71.40
2017-08-05T06:18:10.239Z,70.70
2017-08-05T06:20:37.963Z,70.70
2017-08-05T06:23:05.694Z,70.80
2017-08-05T06:25:33.460Z,70.40
2017-08-05T06:28:01.754Z,70.70
2017-08-05T06:30:29.475Z,70.60
2017-08-05T06:32:57.264Z,69.30
2017-08-05T06:35:25.011Z,69.70
2017-08-05T06:37:52.760Z,69.30
2017-08-05T06:40:20.522Z,69.20
2017-08-05T06:42:48.290Z,68.40
2017-08-05T06:45:16.472Z,67.60
2017-08-05T06:47:44.194Z,67.90
2017-08-05T06:50:11.910Z,68.40
2017-08-05T06:52:39.656Z,68.50
2017-08-05T06:55:07.382Z,68.00
2017-08-05T06:57:35.103Z,67.40
2017-08-05T07:00:02.816Z,66.60
2017-08-05T07:02:30.546Z,66.50
2017-08-05T07:04:58.267Z,67.10
2017-08-05T07:07:26.011Z,67.30
2017-08-05T07:09:54.505Z,67.80
2017-08-05T07:12:22.266Z,67.10
2017-08-05T07:14:50.039Z,67.10
2017-08-05T07:17:17.772Z,65.60
2017-08-05T07:19:45.508Z,65.70
2017-08-05T07:22:13.223Z,66.80
2017-08-05T07:24:40.974Z,66.50
2017-08-05T07:27:09.493Z,66.20
2017-08-05T07:29:37.265Z,66.00
2017-08-05T07:32:06.709Z,65.40
2017-08-05T07:34:34.687Z,65.90
2017-08-05T07:37:03.227Z,64.40
2017-08-05T07:39:30.991Z,64.30
2017-08-05T07:41:58.744Z,62.90
2017-08-05T07:44:26.503Z,62.80
2017-08-05T07:46:54.276Z,62.40
2017-08-05T07:49:22.060Z,62.50
2017-08-05T07:51:49.840Z,63.10
2017-08-05T07:54:17.600Z,63.00
2017-08-05T07:56:45.338Z,62.60
2017-08-05T07:59:14.116Z,63.20
2017-08-05T08:01:41.885Z,62.50
2017-08-05T08:04:09.616Z,62.10
2017-08-05T08:06:37.391Z,62.00
2017-08-05T08:09:05.151Z,61.80
2017-08-05T08:11:32.884Z,60.50
2017-08-05T08:14:00.659Z,61.40
2017-08-05T08:16:28.397Z,61.40
2017-08-05T08:18:56.137Z,61.40
2017-08-05T08:21:23.902Z,61.30
2017-08-05T08:23:51.696Z,60.40
2017-08-05T08:26:19.663Z,60.60
2017-08-05T08:28:47.475Z,59.80
2017-08-05T08:31:15.476Z,59.80
2017-08-05T08:33:43.227Z,60.60
2017-08-05T08:36:25.957Z,60.40
2017-08-05T08:38:53.699Z,59.80
2017-08-05T08:41:21.452Z,59.10
2017-08-05T08:43:49.229Z,59.90
2017-08-05T08:46:16.964Z,59.60
2017-08-05T08:48:46.186Z,58.90
2017-08-05T08:51:13.936Z,59.90
2017-08-05T08:53:41.787Z,59.90
2017-08-05T08:56:10.297Z,58.10
2017-08-05T08:58:38.048Z,58.00
2017-08-05T09:01:05.838Z,58.70
2017-08-05T09:03:33.586Z,58.00
2017-08-05T09:06:01.316Z,58.50
2017-08-05T09:08:29.080Z,58.50
2017-08-05T09:10:57.016Z,58.50
2017-08-05T09:13:24.840Z,57.70
2017-08-05T09:15:52.628Z,57.80
2017-08-05T09:18:20.378Z,57.40
2017-08-05T09:20:48.112Z,58.70
2017-08-05T09:23:16.633Z,57.20
2017-08-05T09:25:45.278Z,57.00
2017-08-05T09:28:13.200Z,57.60
2017-08-05T09:30:41.041Z,58.20
2017-08-05T09:33:08.823Z,57.80
2017-08-05T09:35:36.545Z,57.30
2017-08-05T09:38:04.280Z,56.90
2017-08-05T09:40:32.021Z,58.20
2017-08-05T09:42:59.774Z,57.30
2017-08-05T09:45:27.511Z,56.00
2017-08-05T09:47:55.303Z,57.70
2017-08-05T09:50:23.045Z,56.50
2017-08-05T09:52:50.873Z,55.70
2017-08-05T09:55:18.629Z,55.50
2017-08-05T09:57:46.603Z,55.60
2017-08-05T10:00:14.328Z,55.00
2017-08-05T10:02:42.068Z,54.50
2017-08-05T10:05:09.853Z,54.00
2017-08-05T10:07:37.592Z,53.80
2017-08-05T10:10:06.455Z,53.10
2017-08-05T10:12:34.982Z,53.50
2017-08-05T10:15:02.761Z,53.50
2017-08-05T10:17:30.510Z,53.60
2017-08-05T10:20:00.166Z,52.80
2017-08-05T10:22:27.924Z,52.10
2017-08-05T10:24:55.671Z,53.00
2017-08-05T10:27:23.437Z,53.00
2017-08-05T10:29:52.253Z,52.80
2017-08-05T10:32:20.013Z,51.50
2017-08-05T10:34:48.171Z,51.90
2017-08-05T10:37:15.958Z,51.80
2017-08-05T10:39:43.694Z,51.80
2017-08-05T10:42:12.446Z,49.70
2017-08-05T10:44:40.187Z,50.40
2017-08-05T10:47:07.938Z,51.50
2017-08-05T10:49:35.697Z,49.80
2017-08-05T10:52:04.187Z,50.90
2017-08-05T10:54:31.944Z,50.10
2017-08-05T10:56:59.752Z,50.60
2017-08-05T10:59:27.516Z,50.50
2017-08-05T11:01:55.274Z,52.40
2017-08-05T11:04:24.030Z,51.20
2017-08-05T11:06:51.772Z,49.70
2017-08-05T11:09:19.507Z,49.10
2017-08-05T11:11:47.272Z,50.10
2017-08-05T11:14:15.002Z,49.60
2017-08-05T11:16:42.783Z,50.40
2017-08-05T11:19:10.536Z,49.50
2017-08-05T11:21:38.278Z,49.70
2017-08-05T11:24:07.446Z,49.50
2017-08-05T11:26:35.203Z,50.40
2017-08-05T11:29:02.978Z,49.70
2017-08-05T11:31:30.730Z,48.70
2017-08-05T11:34:00.471Z,49.00
2017-08-05T11:36:29.023Z,48.70
2017-08-05T11:38:56.761Z,48.60
2017-08-05T11:41:24.492Z,48.90
2017-08-05T11:43:54.134Z,48.80
2017-08-05T11:46:21.884Z,48.10
2017-08-05T11:48:49.630Z,50.80
2017-08-05T11:51:17.407Z,47.90
2017-08-05T11:53:46.439Z,49.60
2017-08-05T11:56:14.616Z,48.20
2017-08-05T11:58:43.163Z,47.50
2017-08-05T12:01:11.747Z,47.30
2017-08-05T12:03:40.643Z,47.50
2017-08-05T12:06:08.401Z,47.70
2017-08-05T12:08:36.126Z,48.20
2017-08-05T12:11:04.621Z,49.70
2017-08-05T12:13:32.375Z,49.80
2017-08-05T12:16:00.916Z,49.10
2017-08-05T12:18:29.446Z,49.00
2017-08-05T12:20:57.199Z,47.80
2017-08-05T12:23:25.943Z,47.50
2017-08-05T12:25:53.694Z,49.90
2017-08-05T12:28:21.439Z,46.50
2017-08-05T12:30:49.181Z,46.10
2017-08-05T12:33:16.931Z,45.20
2017-08-05T12:35:44.676Z,44.60
2017-08-05T12:38:12.443Z,46.20
2017-08-05T12:40:40.183Z,46.30
2017-08-05T12:43:07.932Z,44.40
2017-08-05T12:45:35.705Z,44.80
2017-08-05T12:48:04.230Z,43.10
2017-08-05T12:50:33.190Z,43.00
2017-08-05T12:53:00.938Z,43.40
2017-08-05T12:55:28.684Z,43.60
2017-08-05T12:57:56.441Z,42.50
2017-08-05T13:00:24.284Z,41.40
2017-08-05T13:02:52.021Z,38.90
2017-08-05T13:05:20.402Z,41.90
2017-08-05T13:07:48.135Z,39.80
2017-08-05T13:10:15.923Z,38.90
2017-08-05T13:12:43.683Z,37.20
2017-08-05T13:15:11.424Z,38.30
2017-08-05T13:17:39.151Z,38.90
2017-08-05T13:20:06.939Z,35.50
2017-08-05T13:22:35.563Z,36.70
2017-08-05T13:25:03.964Z,37.70
2017-08-05T13:27:32.620Z,35.40
2017-08-05T13:30:00.351Z,34.80
2017-08-05T13:32:28.747Z,35.80
2017-08-05T13:34:56.514Z,33.80
2017-08-05T13:37:24.277Z,34.40
2017-08-05T13:39:52.003Z,34.40
2017-08-05T13:42:20.726Z,32.80
2017-08-05T13:44:48.504Z,34.30
2017-08-05T13:47:16.252Z,33.40
2017-08-05T13:49:44.003Z,31.00
2017-08-05T13:52:11.788Z,31.50
2017-08-05T13:54:39.542Z,31.20
2017-08-05T13:57:07.317Z,30.10
2017-08-05T13:59:35.044Z,29.00
2017-08-05T14:02:02.813Z,29.90
2017-08-05T14:04:30.583Z,30.00
2017-08-05T14:06:58.314Z,30.70
2017-08-05T14:09:26.723Z,29.30
2017-08-05T14:11:54.451Z,28.70
2017-08-05T14:14:22.228Z,27.50
2017-08-05T14:16:49.968Z,28.70
2017-08-05T14:19:17.678Z,26.70
2017-08-05T14:21:45.489Z,27.50
2017-08-05T14:24:13.235Z,26.70
2017-08-05T14:26:41.013Z,26.60
2017-08-05T14:29:08.738Z,27.40
2017-08-05T14:31:37.760Z,27.40
2017-08-05T14:34:05.490Z,26.20
2017-08-05T14:36:33.210Z,26.10
2017-08-05T14:39:00.987Z,25.10
2017-08-05T14:41:29.887Z,26.60
2017-08-05T14:43:58.414Z,29.00
2017-08-05T14:46:26.167Z,28.30
2017-08-05T14:48:53.927Z,27.30
2017-08-05T14:51:21.682Z,28.50
2017-08-05T14:53:49.437Z,27.90
2017-08-05T14:56:17.294Z,28.80
2017-08-05T14:58:45.067Z,30.40
2017-08-05T15:01:12.839Z,31.10
2017-08-05T15:03:40.609Z,32.90
2017-08-05T15:06:17.312Z,34.50
2017-08-05T15:08:45.075Z,34.60
2017-08-05T15:11:16.515Z,35.20
2017-08-05T15:13:44.291Z,36.70
2017-08-05T15:16:12.097Z,36.10
2017-08-05T15:18:39.863Z,36.60
2017-08-05T15:21:10.060Z,36.30
2017-08-05T15:23:37.859Z,37.20
2017-08-05T15:26:06.405Z,36.80
2017-08-05T15:28:34.412Z,36.70
2017-08-05T15:31:02.180Z,37.50
2017-08-05T15:33:30.124Z,36.60
2017-08-05T15:35:58.040Z,38.30
2017-08-05T15:38:25.925Z,37.00
2017-08-05T15:40:54.565Z,37.60
2017-08-05T15:43:22.289Z,37.50
2017-08-05T15:45:50.068Z,38.20
2017-08-05T15:48:17.923Z,37.80
2017-08-05T15:50:45.655Z,38.70
2017-08-05T15:53:14.800Z,39.60
2017-08-05T15:55:42.543Z,39.50
2017-08-05T15:58:11.981Z,38.50
2017-08-05T16:00:39.726Z,38.10
2017-08-05T16:03:07.495Z,40.00
2017-08-05T16:05:35.248Z,40.10
2017-08-05T16:08:03.743Z,39.70
2017-08-05T16:10:32.232Z,39.30
2017-08-05T16:13:00.772Z,39.40
2017-08-05T16:15:31.155Z,39.30
2017-08-05T16:17:58.893Z,39.30
2017-08-05T16:20:26.659Z,39.80
2017-08-05T16:22:54.416Z,40.70
2017-08-05T16:25:22.176Z,41.60
2017-08-05T16:27:51.513Z,41.90
2017-08-05T16:30:20.056Z,41.70
2017-08-05T16:32:48.047Z,41.20
2017-08-05T16:35:16.191Z,41.80
2017-08-05T16:37:43.928Z,42.10
2017-08-05T16:40:11.799Z,42.70
2017-08-05T16:42:40.363Z,42.40
2017-08-05T16:45:08.183Z,41.70
2017-08-05T16:47:38.137Z,41.80
2017-08-05T16:50:06.135Z,41.50
2017-08-05T16:52:33.892Z,41.90
2017-08-05T16:55:01.632Z,42.40
2017-08-05T16:57:29.455Z,43.30
2017-08-05T16:59:57.210Z,43.00
2017-08-05T17:02:25.988Z,43.40
2017-08-05T17:04:53.737Z,43.90
2017-08-05T17:07:21.580Z,43.00
2017-08-05T17:09:49.341Z,43.40
2017-08-05T17:12:17.088Z,43.50
2017-08-05T17:14:45.846Z,44.70
2017-08-05T17:17:13.579Z,44.10
2017-08-05T17:19:41.337Z,45.40
2017-08-05T17:22:09.082Z,44.70
2017-08-05T17:24:37.069Z,45.90
2017-08-05T17:27:04.828Z,46.00
2017-08-05T17:29:32.563Z,46.40
2017-08-05T17:32:01.130Z,46.50
2017-08-05T17:34:30.267Z,47.80
2017-08-05T17:36:58.387Z,44.80
2017-08-05T17:39:26.123Z,43.10
2017-08-05T17:41:53.877Z,39.60
2017-08-05T17:44:21.624Z,38.90
2017-08-05T17:46:49.330Z,37.00
2017-08-05T17:49:17.067Z,36.40
2017-08-05T17:51:44.849Z,36.20
2017-08-05T17:54:12.579Z,38.50
2017-08-05T17:56:40.339Z,39.30
2017-08-05T17:59:08.903Z,41.00
2017-08-05T18:01:37.583Z,41.90
2017-08-05T18:04:05.338Z,42.50
2017-08-05T18:06:33.110Z,44.50
2017-08-05T18:09:00.846Z,44.00
2017-08-05T18:11:28.592Z,44.20
2017-08-05T18:13:56.327Z,45.10
2017-08-05T18:16:24.086Z,45.70
2017-08-05T18:18:51.847Z,45.70
2017-08-05T18:21:19.604Z,46.70
2017-08-05T18:23:47.982Z,46.30
2017-08-05T18:26:15.896Z,47.40
2017-08-05T18:28:44.779Z,47.20
2017-08-05T18:31:13.066Z,48.10
2017-08-05T18:33:40.833Z,48.80
2017-08-05T18:36:08.786Z,49.60
2017-08-05T18:38:36.681Z,49.80
2017-08-05T18:41:04.462Z,50.40
2017-08-05T18:43:32.204Z,50.50
2017-08-05T18:45:59.963Z,50.50
2017-08-05T18:48:27.706Z,50.80
2017-08-05T18:50:55.434Z,51.20
2017-08-05T18:53:24.063Z,51.80
2017-08-05T18:55:51.852Z,51.70
2017-08-05T18:58:19.591Z,51.90
2017-08-05T19:00:47.358Z,52.10
2017-08-05T19:03:15.578Z,52.10
2017-08-05T19:05:44.080Z,52.40
2017-08-05T19:08:11.819Z,52.30
2017-08-05T19:10:39.916Z,52.10
2017-08-05T19:13:07.661Z,52.80
2017-08-05T19:15:35.366Z,52.30
2017-08-05T19:18:04.115Z,52.00
2017-08-05T19:20:31.859Z,51.90
2017-08-05T19:22:59.596Z,52.50
2017-08-05T19:25:27.327Z,52.00
2017-08-05T19:27:55.044Z,52.10
2017-08-05T19:30:22.809Z,51.80
2017-08-05T19:32:50.532Z,52.30
2017-08-05T19:35:18.317Z,52.10
2017-08-05T19:37:46.049Z,51.70
2017-08-05T19:40:14.627Z,52.10
2017-08-05T19:42:42.692Z,52.10
2017-08-05T19:45:10.830Z,52.40
2017-08-05T19:47:39.077Z,53.20
2017-08-05T19:50:07.123Z,53.30
2017-08-05T19:52:34.868Z,53.20
2017-08-05T19:55:02.595Z,54.40
2017-08-05T19:57:30.324Z,55.40
2017-08-05T19:59:59.207Z,54.90
2017-08-05T20:02:26.931Z,56.20
2017-08-05T20:04:55.425Z,56.20
2017-08-05T20:07:23.168Z,56.10
2017-08-05T20:09:52.116Z,56.20
2017-08-05T20:12:19.880Z,56.30
2017-08-05T20:14:47.639Z,58.50
2017-08-05T20:17:15.384Z,57.30
2017-08-05T20:19:43.213Z,57.80
2017-08-05T20:22:11.158Z,57.90
2017-08-05T20:24:38.880Z,57.50
2017-08-05T20:27:06.834Z,58.50
2017-08-05T20:29:34.602Z,58.80
2017-08-05T20:32:02.319Z,59.70
2017-08-05T20:34:30.152Z,59.50
2017-08-05T20:36:58.007Z,58.00
2017-08-05T20:39:27.462Z,58.80
2017-08-05T20:41:55.182Z,57.20
2017-08-05T20:44:22.932Z,55.40
2017-08-05T20:46:50.678Z,55.30
2017-08-05T20:49:18.406Z,55.30
2017-08-05T20:51:46.151Z,56.70
2017-08-05T20:54:13.971Z,57.50
2017-08-05T20:56:41.716Z,57.50
2017-08-05T20:59:09.461Z,57.50
2017-08-05T21:01:37.201Z,57.60
2017-08-05T21:04:04.924Z,58.40
2017-08-05T21:06:32.646Z,58.50
2017-08-05T21:09:00.354Z,58.70
2017-08-05T21:11:28.620Z,58.80
2017-08-05T21:13:57.136Z,59.50
2017-08-05T21:16:24.859Z,59.40
2017-08-05T21:18:52.605Z,59.20
2017-08-05T21:21:20.332Z,59.90
2017-08-05T21:23:48.075Z,60.30
2017-08-05T21:26:16.598Z,60.50
2017-08-05T21:28:44.323Z,60.90
2017-08-05T21:31:12.059Z,62.00
2017-08-05T21:33:41.154Z,63.30
2017-08-05T21:36:08.880Z,64.90
2017-08-05T21:38:36.616Z,63.90
2017-08-05T21:41:04.383Z,64.40
2017-08-05T21:43:32.232Z,65.00
2017-08-05T21:45:59.975Z,64.90
2017-08-05T21:48:27.742Z,64.80
2017-08-05T21:50:55.516Z,64.90
2017-08-05T21:53:23.296Z,65.70
2017-08-05T21:55:51.034Z,66.00
2017-08-05T21:58:18.759Z,66.70
2017-08-05T22:00:46.580Z,66.40
2017-08-05T22:03:14.326Z,65.90
2017-08-05T22:05:43.051Z,65.50
2017-08-05T22:08:10.786Z,66.20
2017-08-05T22:10:38.501Z,66.30
2017-08-05T22:13:06.225Z,66.10
2017-08-05T22:15:33.936Z,67.70
2017-08-05T22:18:01.672Z,67.40
2017-08-05T22:20:29.384Z,67.00
2017-08-05T22:22:57.246Z,67.20
2017-08-05T22:25:24.982Z,68.00
2017-08-05T22:27:52.719Z,67.10
2017-08-05T22:30:20.446Z,68.00
2017-08-05T22:32:48.174Z,68.10
2017-08-05T22:35:15.935Z,68.30
2017-08-05T22:37:43.677Z,67.20
2017-08-05T22:40:11.402Z,67.80
2017-08-05T22:42:39.147Z,67.90
2017-08-05T22:45:06.859Z,68.40
2017-08-05T22:47:35.542Z,68.40
2017-08-05T22:50:03.283Z,67.70
2017-08-05T22:52:32.732Z,66.20
2017-08-05T22:55:00.458Z,64.20
2017-08-05T22:57:28.201Z,65.30
2017-08-05T22:59:55.920Z,65.70
2017-08-05T23:02:23.763Z,67.00
2017-08-05T23:04:51.515Z,66.70
2017-08-05T23:07:19.260Z,67.60
2017-08-05T23:09:48.026Z,65.80
2017-08-05T23:12:15.763Z,65.90
2017-08-05T23:14:43.511Z,66.90
2017-08-05T23:17:11.244Z,65.90
2017-08-05T23:19:38.951Z,66.30
2017-08-05T23:22:06.790Z,66.70
2017-08-05T23:24:34.551Z,66.50
2017-08-05T23:27:02.407Z,66.40
2017-08-05T23:29:30.123Z,65.30
2017-08-05T23:31:57.863Z,65.80
2017-08-05T23:34:25.640Z,65.30
2017-08-05T23:36:53.357Z,66.30
2017-08-05T23:39:21.112Z,65.90
2017-08-05T23:41:49.799Z,65.60
2017-08-05T23:44:17.544Z,65.00
2017-08-05T23:46:45.279Z,63.20
2017-08-05T23:49:13.007Z,64.30
2017-08-05T23:51:42.150Z,63.40
2017-08-05T23:54:09.869Z,60.10
2017-08-05T23:56:37.628Z,61.80
2017-08-05T23:59:05.339Z,62.90
